Time;durP1;ratioP1;P1;durP2;ratioP2;P2;SDS_P1;SDS_P2;PMS_P1;PMS_P2;Temp;Humidity;BMP_temperature;BMP_pressure;BME280_temperature;BME280_humidity;BME280_pressure;Samples;Min_cycle;Max_cycle;Signal;HPM_P1;HPM_P2
2023/05/10 00:00:55;;;;;;;4.73;2.70;;;19.90;48.70;;;22.52;33.15;100636.72;5055676;28;20260;-65
2023/05/10 00:03:22;;;;;;;4.60;2.50;;;19.80;47.30;;;22.45;32.07;100625.38;5055267;28;20186;-65
2023/05/10 00:05:49;;;;;;;2.77;2.57;;;19.80;45.10;;;22.39;32.73;100626.41;5054703;28;20274;-65
2023/05/10 00:08:16;;;;;;;3.60;2.50;;;19.80;46.10;;;22.36;32.70;100626.91;5054670;28;20220;-65
2023/05/10 00:10:45;;;;;;;2.70;2.50;;;19.80;46.10;;;22.35;32.47;100624.47;5055006;28;20620;-65
2023/05/10 00:13:12;;;;;;;3.80;2.53;;;19.80;45.90;;;22.34;32.61;100621.00;5054636;28;20214;-65
2023/05/10 00:15:39;;;;;;;4.37;2.20;;;19.80;45.70;;;22.31;31.59;100620.69;5054621;28;20224;-65
2023/05/10 00:18:06;;;;;;;3.00;2.40;;;19.70;44.20;;;22.27;31.69;100623.09;5054285;28;20206;-65
2023/05/10 00:20:33;;;;;;;4.53;2.63;;;19.70;44.20;;;22.26;31.89;100616.09;5039455;28;20199;-67
2023/05/10 00:23:00;;;;;;;3.00;2.10;;;19.70;44.20;;;22.27;32.58;100615.03;5034731;28;20245;-67
2023/05/10 00:25:27;;;;;;;3.43;2.10;;;19.70;45.20;;;22.27;32.14;100612.34;5035027;28;20214;-65
2023/05/10 00:27:56;;;;;;;5.00;2.40;;;19.70;45.00;;;22.28;32.21;100613.97;5034842;28;20195;-65
2023/05/10 00:30:24;;;;;;;2.50;2.27;;;19.70;44.80;;;22.23;30.96;100611.22;5047688;28;20251;-64
2023/05/10 00:32:51;;;;;;;2.63;2.37;;;19.60;42.60;;;22.15;30.80;100617.88;5054362;28;20243;-65
2023/05/10 00:35:19;;;;;;;3.50;2.20;;;19.60;42.70;;;22.14;31.59;100618.13;5054662;28;20209;-65
2023/05/10 00:37:46;;;;;;;2.13;2.03;;;19.60;43.60;;;22.15;31.69;100609.03;5054366;28;20190;-65
2023/05/10 00:40:13;;;;;;;2.60;2.40;;;19.60;43.90;;;22.16;31.96;100611.44;5054090;28;20194;-64
2023/05/10 00:42:41;;;;;;;3.47;2.10;;;19.60;43.80;;;22.16;31.67;100600.72;5054373;28;20212;-64
2023/05/10 00:45:09;;;;;;;4.63;4.23;;;19.50;43.80;;;22.16;31.47;100597.22;5054377;28;20210;-66
2023/05/10 00:47:37;;;;;;;4.13;2.77;;;19.50;43.70;;;22.14;31.74;100599.34;5054404;28;20224;-65
2023/05/10 00:50:06;;;;;;;3.17;2.70;;;19.50;43.80;;;22.12;31.47;100610.34;5044470;28;20190;-65
2023/05/10 00:52:33;;;;;;;4.77;2.73;;;19.50;43.50;;;22.09;31.15;100608.16;5034381;28;20651;-66
2023/05/10 00:55:01;;;;;;;4.20;2.47;;;19.50;43.60;;;22.04;31.34;100612.66;5033845;28;20702;-66
2023/05/10 00:57:28;;;;;;;6.10;2.83;;;19.50;42.90;;;21.95;30.68;100606.13;5050074;28;20197;-65
2023/05/10 00:59:55;;;;;;;4.30;2.90;;;19.40;42.00;;;21.84;30.89;100601.69;5053576;28;20193;-64
2023/05/10 01:02:24;;;;;;;4.20;3.17;;;19.40;41.90;;;21.73;31.36;100605.34;5054164;28;20197;-64
2023/05/10 01:04:51;;;;;;;3.03;2.77;;;19.30;42.10;;;21.69;31.79;100593.47;5052622;28;20220;-65
2023/05/10 01:07:18;;;;;;;3.47;2.57;;;19.30;42.70;;;21.68;32.22;100597.22;5053779;28;20190;-64
2023/05/10 01:09:45;;;;;;;3.80;2.60;;;19.20;43.20;;;21.70;31.85;100600.47;5040826;28;20194;-66
2023/05/10 01:12:13;;;;;;;2.53;2.33;;;19.20;43.40;;;21.70;31.74;100595.91;5034648;28;20662;-65
2023/05/10 01:14:40;;;;;;;2.93;2.60;;;19.20;43.30;;;21.70;31.96;100595.09;5053014;28;20217;-67
2023/05/10 01:17:09;;;;;;;2.60;2.27;;;19.10;43.20;;;21.64;31.43;100588.88;5041112;28;20670;-64
2023/05/10 01:19:38;;;;;;;4.60;2.47;;;19.10;42.60;;;21.61;32.03;100591.25;5033951;28;20667;-66
2023/05/10 01:22:34;;;;;;;3.83;2.60;;;19.10;43.20;;;21.51;31.32;100592.72;5033712;28;20194;-64
2023/05/10 01:25:28;;;;;;;2.83;2.63;;;19.10;42.70;;;21.44;31.56;100589.44;5033445;28;20702;-64
2023/05/10 01:28:33;;;;;;;3.30;2.83;;;19.00;42.80;;;21.34;32.04;100586.66;5053684;28;20700;-66
2023/05/10 01:31:28;;;;;;;2.60;2.37;;;19.00;42.70;;;21.33;32.27;100590.38;5053456;28;20197;-65
2023/05/10 01:34:06;;;;;;;2.80;2.60;;;18.90;42.90;;;21.37;32.49;100590.69;5053133;28;20705;-65
2023/05/10 01:36:42;;;;;;;3.53;2.80;;;18.90;43.40;;;21.37;31.80;100591.50;5044801;28;20242;-65
2023/05/10 01:39:17;;;;;;;3.83;2.87;;;18.90;43.20;;;21.36;32.41;100595.25;5033546;28;20197;-64
2023/05/10 01:41:54;;;;;;;4.20;3.03;;;18.90;43.30;;;21.32;31.78;100588.75;5042637;28;20259;-66
2023/05/10 01:44:35;;;;;;;7.33;2.67;;;18.90;43.20;;;21.28;31.93;100590.31;5052970;28;20231;-65
2023/05/10 01:47:08;;;;;;;4.40;3.43;;;18.80;43.90;;;21.28;32.05;100592.16;5052693;28;20889;-65
2023/05/10 01:49:43;;;;;;;8.23;3.17;;;18.80;43.50;;;21.21;32.57;100586.19;5053549;28;20572;-66
2023/05/10 01:52:15;;;;;;;5.10;3.27;;;18.80;43.40;;;21.19;32.74;100586.44;5053507;28;20491;-64
2023/05/10 01:54:53;;;;;;;6.57;2.90;;;18.80;43.70;;;21.16;32.37;100588.78;5052802;28;20221;-65
2023/05/10 01:57:27;;;;;;;2.87;2.67;;;18.70;43.80;;;21.18;33.03;100582.13;5052588;28;20280;-64
2023/05/10 01:59:56;;;;;;;4.63;3.33;;;18.70;44.10;;;21.13;32.80;100581.28;5051901;28;20251;-65
2023/05/10 02:02:27;;;;;;;4.33;3.03;;;18.60;43.60;;;21.08;32.48;100576.66;5053150;28;20625;-65
2023/05/10 02:04:57;;;;;;;4.17;3.23;;;18.60;43.90;;;;;;5052935;28;20206;-64
2023/05/10 02:07:26;;;;;;;4.43;3.10;;;18.60;44.30;;;21.10;33.16;100579.91;5044245;28;20210;-64
2023/05/10 02:09:55;;;;;;;3.03;2.60;;;18.60;44.40;;;21.07;32.70;100580.38;5033169;28;20248;-66
2023/05/10 02:12:24;;;;;;;4.03;2.77;;;18.60;44.30;;;21.11;33.20;100575.34;5035155;28;20187;-65
2023/05/10 02:14:53;;;;;;;5.73;2.87;;;18.60;44.70;;;21.15;32.92;100576.47;5044571;28;20230;-64
2023/05/10 02:17:22;;;;;;;3.37;2.80;;;18.60;45.00;;;21.16;33.37;100572.72;5037552;28;20268;-64
2023/05/10 02:19:51;;;;;;;2.93;2.73;;;18.60;44.90;;;21.12;33.10;100567.06;5037265;28;20697;-65
2023/05/10 02:22:22;;;;;;;4.63;3.10;;;18.60;44.70;;;21.10;33.14;100579.91;5043141;28;20201;-66
2023/05/10 02:24:50;;;;;;;4.13;2.77;;;18.60;44.80;;;;;;5056538;28;20218;-65
2023/05/10 02:27:20;;;;;;;5.13;2.83;;;18.50;45.00;;;21.08;33.63;100587.38;5043693;28;20210;-64
2023/05/10 02:29:49;;;;;;;2.90;2.60;;;18.60;45.30;;;21.06;33.79;100578.75;5036738;28;20194;-65
2023/05/10 02:32:17;;;;;;;4.27;3.10;;;18.50;45.30;;;21.01;33.26;100581.34;5036753;28;20213;-65
2023/05/10 02:34:51;;;;;;;3.60;3.30;;;18.50;45.30;;;20.98;33.57;100575.66;5036195;28;20598;-66
2023/05/10 02:37:21;;;;;;;4.73;3.40;;;18.50;45.40;;;20.92;33.43;100575.59;5039744;28;20186;-65
2023/05/10 02:39:52;;;;;;;2.83;2.63;;;18.40;45.50;;;20.91;34.20;100586.56;5056683;28;20190;-66
2023/05/10 02:42:25;;;;;;;3.27;2.93;;;18.40;45.90;;;20.88;34.37;100577.16;5056650;28;20677;-66
2023/05/10 02:44:59;;;;;;;4.23;3.60;;;18.40;46.20;;;20.88;34.36;100573.66;5056209;28;20210;-65
2023/05/10 02:47:26;;;;;;;3.03;2.83;;;18.40;46.20;;;20.90;33.97;100574.22;5052387;28;20582;-66
2023/05/10 02:49:53;;;;;;;3.73;3.10;;;18.40;46.30;;;20.88;33.89;100577.16;5036578;28;20198;-65
2023/05/10 02:52:28;;;;;;;4.00;3.30;;;18.40;46.30;;;20.86;33.88;100573.09;5036515;28;20201;-65
2023/05/10 02:55:00;;;;;;;4.27;3.13;;;18.30;46.30;;;20.85;34.59;100577.63;5036161;28;20689;-65
2023/05/10 02:57:33;;;;;;;8.60;3.00;;;18.30;46.60;;;20.82;35.19;100580.78;5040508;28;20201;-65
2023/05/10 03:00:02;;;;;;;4.40;3.23;;;18.30;47.50;;;20.83;35.23;100585.09;5046998;28;20191;-66
2023/05/10 03:02:31;;;;;;;6.33;4.00;;;18.30;48.10;;;20.84;35.69;100584.06;5036601;28;20171;-66
2023/05/10 03:04:58;;;;;;;4.27;3.10;;;18.30;49.10;;;20.81;35.60;100576.50;5055713;28;20213;-65
2023/05/10 03:07:26;;;;;;;3.10;2.80;;;18.30;49.30;;;20.80;36.25;100580.22;5054870;28;20714;-66
2023/05/10 03:09:53;;;;;;;3.80;2.97;;;18.20;49.70;;;20.82;36.67;100583.47;5056012;28;20261;-65
2023/05/10 03:12:33;;;;;;;4.37;3.50;;;18.20;50.10;;;20.76;36.65;100584.47;5055812;28;20214;-65
2023/05/10 03:15:13;;;;;;;3.60;3.30;;;18.20;50.20;;;20.70;36.63;100579.28;5045688;28;20234;-65
2023/05/10 03:17:52;;;;;;;4.33;3.17;;;18.20;50.40;;;20.66;36.47;100583.47;5036448;28;20194;-64
2023/05/10 03:20:25;;;;;;;3.93;2.97;;;18.10;50.40;;;20.63;36.52;100573.28;5036305;28;20244;-65
2023/05/10 03:23:10;;;;;;;5.27;3.10;;;18.10;50.50;;;20.57;36.54;100579.59;5035604;28;20213;-66
2023/05/10 03:25:39;;;;;;;3.53;3.23;;;18.00;50.40;;;20.56;36.77;100575.31;5035936;28;20210;-66
2023/05/10 03:28:08;;;;;;;3.57;3.03;;;18.00;50.80;;;20.54;37.22;100577.44;5035278;28;20571;-67
2023/05/10 03:30:37;;;;;;;5.07;3.23;;;17.90;50.70;;;20.54;36.76;100570.19;5036032;28;20202;-68
2023/05/10 03:33:06;;;;;;;5.87;3.20;;;17.90;50.80;;;20.57;36.87;100568.91;5035569;28;20197;-66
2023/05/10 03:35:34;;;;;;;4.50;3.13;;;17.90;51.20;;;20.59;37.18;100577.50;5035609;28;20207;-65
2023/05/10 03:38:02;;;;;;;4.80;3.10;;;17.90;51.30;;;20.59;36.94;100572.16;5043304;28;20198;-65
2023/05/10 03:40:31;;;;;;;5.67;2.83;;;17.90;51.50;;;20.59;37.59;100572.97;5055516;28;20197;-65
2023/05/10 03:42:58;;;;;;;3.63;3.33;;;17.90;51.90;;;20.58;37.36;100581.25;5055509;28;20674;-65
2023/05/10 03:45:25;;;;;;;4.40;3.10;;;17.90;52.00;;;20.58;37.84;100575.88;5055631;28;20681;-66
2023/05/10 03:47:52;;;;;;;4.67;3.40;;;17.80;52.40;;;20.60;38.16;100581.81;5048838;28;20725;-65
2023/05/10 03:50:19;;;;;;;4.07;3.50;;;17.90;52.80;;;20.59;37.64;100580.16;5035591;28;20308;-65
2023/05/10 03:52:46;;;;;;;4.03;3.60;;;17.80;52.70;;;20.56;38.26;100578.00;5035269;28;20195;-66
2023/05/10 03:55:14;;;;;;;4.63;3.20;;;17.80;52.90;;;20.53;37.74;100579.28;5035543;28;20268;-66
2023/05/10 03:57:42;;;;;;;4.27;3.60;;;17.80;52.90;;;20.51;37.83;100575.25;5040126;28;20202;-66
2023/05/10 04:00:10;;;;;;;4.20;3.80;;;17.80;52.90;;;20.51;37.93;100569.91;5055455;28;20542;-65
2023/05/10 04:02:37;;;;;;;4.10;3.60;;;17.80;53.00;;;20.47;38.15;100574.09;5054024;28;20659;-66
2023/05/10 04:05:05;;;;;;;8.87;3.67;;;17.80;53.30;;;20.45;38.77;100570.84;5054555;28;20216;-65
2023/05/10 04:07:32;;;;;;;5.33;3.77;;;17.80;53.70;;;20.43;39.17;100573.78;5052787;28;20210;-65
2023/05/10 04:09:59;;;;;;;4.07;3.67;;;17.70;54.20;;;20.41;39.15;100570.53;5054906;28;20194;-65
2023/05/10 04:12:27;;;;;;;4.53;4.00;;;17.70;54.30;;;20.36;39.10;100572.31;5055096;28;20194;-65
2023/05/10 04:14:54;;;;;;;5.17;4.13;;;17.70;54.20;;;20.29;39.04;100571.66;5060142;28;20214;-64
2023/05/10 04:17:21;;;;;;;4.17;3.87;;;17.70;54.50;;;20.25;39.49;100576.69;5062669;28;20634;-65
2023/05/10 04:19:48;;;;;;;4.10;3.60;;;17.60;54.80;;;20.22;39.54;100578.00;5043748;28;20198;-65
2023/05/10 04:22:15;;;;;;;4.50;3.67;;;17.60;55.30;;;20.15;40.12;100577.31;5034598;28;20679;-66
2023/05/10 04:24:42;;;;;;;4.50;3.73;;;17.60;55.40;;;20.14;40.11;100580.19;5034367;28;20217;-65
2023/05/10 04:27:09;;;;;;;4.10;3.37;;;17.50;55.60;;;20.14;40.63;100567.66;5035117;28;20195;-64
2023/05/10 04:29:38;;;;;;;5.23;3.70;;;17.50;56.30;;;20.15;40.44;100577.31;5035051;28;20656;-65
2023/05/10 04:32:05;;;;;;;3.90;3.60;;;17.50;56.40;;;20.13;40.16;100567.91;5034461;28;20189;-65
2023/05/10 04:34:33;;;;;;;7.60;3.80;;;17.40;56.30;;;20.09;40.38;100575.56;5052015;28;20224;-65
2023/05/10 04:37:00;;;;;;;3.97;3.67;;;17.40;56.70;;;20.01;40.87;100575.97;5054149;28;20209;-66
2023/05/10 04:39:27;;;;;;;5.80;3.73;;;17.40;56.90;;;19.99;41.29;100575.38;5054538;28;20194;-66
2023/05/10 04:41:54;;;;;;;4.30;3.90;;;17.30;57.30;;;19.91;41.77;100573.13;5053637;28;20204;-64
2023/05/10 04:44:21;;;;;;;8.50;4.13;;;17.30;58.60;;;19.89;42.15;100583.25;5037435;28;20238;-64
2023/05/10 04:46:49;;;;;;;5.10;4.20;;;17.20;58.60;;;19.89;42.27;100580.56;5034340;28;20573;-64
2023/05/10 04:49:17;;;;;;;8.57;4.00;;;17.20;59.10;;;19.86;42.10;100588.25;5034143;28;20274;-66
2023/05/10 04:51:44;;;;;;;6.27;4.20;;;17.20;59.30;;;19.76;42.52;100594.19;5034341;28;20191;-64
2023/05/10 04:54:11;;;;;;;8.50;4.10;;;17.10;59.40;;;19.72;42.88;100593.06;5048346;28;20226;-63
2023/05/10 04:56:38;;;;;;;5.17;4.00;;;17.10;60.20;;;19.71;43.13;100598.63;5055713;28;20193;-66
2023/05/10 04:59:05;;;;;;;4.63;4.00;;;17.10;60.90;;;19.71;43.37;100599.44;5053663;28;20201;-65
2023/05/10 05:01:32;;;;;;;5.10;4.00;;;17.00;61.30;;;19.72;43.50;100603.75;5053370;28;20186;-65
2023/05/10 05:04:01;;;;;;;5.47;4.80;;;17.00;61.80;;;19.65;44.04;100605.75;5052527;28;20241;-66
2023/05/10 05:06:28;;;;;;;6.70;5.10;;;16.90;62.00;;;19.55;44.16;100613.53;5053477;28;20183;-65
2023/05/10 05:08:55;;;;;;;7.07;4.60;;;16.90;62.60;;;19.50;44.29;100610.75;5052795;28;20194;-65
2023/05/10 05:11:22;;;;;;;4.90;4.40;;;16.80;62.80;;;19.40;44.51;100621.22;5042238;28;20199;-65
2023/05/10 05:13:49;;;;;;;6.40;5.10;;;16.70;62.90;;;19.31;44.72;100617.28;5035474;28;20187;-66
2023/05/10 05:16:16;;;;;;;5.23;4.53;;;16.70;63.50;;;19.20;45.25;100615.44;5038929;28;20206;-66
2023/05/10 05:18:43;;;;;;;5.80;5.07;;;16.60;63.90;;;19.12;45.41;100623.78;5033242;28;20622;-64
2023/05/10 05:21:21;;;;;;;7.30;4.90;;;16.50;63.90;;;19.05;46.19;100636.44;5033560;28;20195;-66
2023/05/10 05:23:48;;;;;;;5.87;5.10;;;16.40;65.50;;;19.01;46.75;100637.94;5033530;28;20197;-65
2023/05/10 05:26:15;;;;;;;5.73;5.23;;;16.40;66.70;;;18.91;47.28;100633.19;5033622;28;20210;-67
2023/05/10 05:28:42;;;;;;;5.77;5.17;;;16.30;67.30;;;18.90;47.58;100636.88;5033348;28;20195;-67
2023/05/10 05:31:09;;;;;;;7.03;4.60;;;16.30;67.70;;;18.90;47.02;100629.72;5033799;28;20525;-65
2023/05/10 05:33:37;;;;;;;6.03;5.00;;;16.20;67.70;;;18.88;47.94;100634.47;5041719;28;20522;-66
2023/05/10 05:36:05;;;;;;;5.67;4.90;;;16.20;68.80;;;18.90;48.10;100637.72;5053327;28;20254;-66
2023/05/10 05:38:34;;;;;;;5.67;4.97;;;16.20;69.20;;;18.91;48.25;100638.53;5054874;28;20202;-65
2023/05/10 05:41:01;;;;;;;5.53;5.03;;;16.20;69.70;;;18.94;48.42;100633.53;5060010;28;20251;-66
2023/05/10 05:43:28;;;;;;;5.50;4.97;;;16.20;70.30;;;18.97;48.92;100636.78;5051042;28;20190;-66
2023/05/10 05:45:57;;;;;;;6.50;5.17;;;16.20;71.00;;;18.94;49.21;100636.19;5034095;28;20271;-65
2023/05/10 05:48:25;;;;;;;6.30;5.10;;;16.20;71.00;;;18.96;49.42;100645.84;5033113;28;20206;-67
2023/05/10 05:50:55;;;;;;;6.20;5.50;;;16.20;71.60;;;18.96;49.26;100643.16;5032704;28;20197;-67
2023/05/10 05:53:23;;;;;;;5.53;5.03;;;16.20;71.50;;;18.96;49.50;100643.16;5037842;28;20201;-64
2023/05/10 05:55:56;;;;;;;6.67;5.80;;;16.20;71.40;;;18.96;49.07;100646.66;5052202;28;20284;-66
2023/05/10 05:58:24;;;;;;;5.90;5.10;;;16.20;71.70;;;18.99;49.68;100651.53;5051186;28;20208;-66
2023/05/10 06:00:51;;;;;;;8.80;5.53;;;16.20;72.10;;;19.00;49.51;100652.31;5052517;28;20189;-66
2023/05/10 06:03:19;;;;;;;6.13;5.53;;;16.20;72.50;;;19.04;50.23;100658.84;5051547;28;20186;-66
2023/05/10 06:05:47;;;;;;;7.87;6.27;;;16.20;73.70;;;19.02;50.23;100660.94;5038154;28;20218;-67
2023/05/10 06:08:14;;;;;;;5.93;5.23;;;16.20;73.20;;;19.03;50.68;100667.88;5047202;28;20670;-66
2023/05/10 06:10:41;;;;;;;6.57;5.97;;;16.20;73.90;;;19.00;50.59;100668.31;5052201;28;20202;-68
2023/05/10 06:13:10;;;;;;;7.53;5.60;;;16.20;73.90;;;18.89;50.91;100676.13;5052038;28;20194;-67
2023/05/10 06:15:37;;;;;;;6.10;5.50;;;16.10;73.90;;;18.81;51.58;100676.44;5049757;28;20297;-67
2023/05/10 06:18:05;;;;;;;8.27;6.37;;;16.10;75.40;;;18.74;52.04;100677.59;5052477;28;20528;-66
2023/05/10 06:20:32;;;;;;;9.67;5.63;;;16.10;75.30;;;18.68;51.83;100676.66;5052496;28;20189;-66
2023/05/10 06:22:59;;;;;;;6.57;5.43;;;16.00;75.80;;;18.68;52.71;100676.66;5050964;28;20197;-66
2023/05/10 06:25:26;;;;;;;8.07;6.13;;;16.00;76.80;;;18.68;52.98;100682.00;5051517;28;20677;-66
2023/05/10 06:27:57;;;;;;;8.23;6.10;;;15.90;76.90;;;18.69;53.27;100682.78;5052085;28;20225;-66
2023/05/10 06:30:28;;;;;;;8.73;5.90;;;16.00;77.20;;;18.72;53.14;100683.16;5052264;28;20174;-68
2023/05/10 06:32:56;;;;;;;7.43;5.73;;;16.00;77.90;;;18.69;53.06;100683.59;5052025;28;20274;-66
2023/05/10 06:35:23;;;;;;;7.23;6.13;;;16.00;78.30;;;18.65;53.36;100681.63;5042147;28;20210;-66
2023/05/10 06:37:50;;;;;;;8.13;5.87;;;15.90;77.50;;;18.58;53.68;100680.91;5032313;28;20274;-67
2023/05/10 06:40:18;;;;;;;8.83;5.70;;;15.90;78.00;;;18.47;53.93;100679.81;5031875;28;20199;-67
2023/05/10 06:42:46;;;;;;;5.93;5.33;;;15.90;78.20;;;18.46;53.98;100683.56;5032358;28;20672;-68
2023/05/10 06:45:15;;;;;;;7.00;6.30;;;15.80;78.80;;;18.51;54.25;100680.19;5032235;28;20238;-68
2023/05/10 06:47:44;;;;;;;8.77;6.53;;;15.70;79.40;;;18.54;54.84;100687.75;5031716;28;20694;-67
2023/05/10 06:50:11;;;;;;;7.40;6.70;;;15.70;80.20;;;18.52;55.45;100690.63;5042671;28;20206;-66
2023/05/10 06:52:39;;;;;;;8.03;7.27;;;15.80;81.40;;;18.52;55.92;100692.50;5052704;28;20269;-69
2023/05/10 06:55:08;;;;;;;7.07;6.37;;;15.80;81.90;;;18.51;56.05;100697.00;5051975;28;20583;-68
2023/05/10 06:57:35;;;;;;;7.60;6.53;;;15.80;81.90;;;18.54;56.27;100701.88;5051456;28;20198;-68
2023/05/10 07:00:06;;;;;;;11.40;10.20;;;15.80;82.50;;;18.58;55.98;100712.91;5051655;28;20284;-67
2023/05/10 07:02:33;;;;;;;8.90;7.83;;;15.80;83.00;;;18.68;55.93;100714.00;5054177;28;20194;-66
2023/05/10 07:05:01;;;;;;;6.97;6.27;;;15.80;82.50;;;18.83;56.14;100721.53;5055303;28;20218;-67
2023/05/10 07:07:29;;;;;;;14.30;9.37;;;15.90;83.10;;;18.98;56.30;100723.78;5055708;28;20197;-67
2023/05/10 07:09:57;;;;;;;12.27;10.97;;;16.00;84.00;;;19.11;56.01;100723.56;5054698;28;20217;-67
2023/05/10 07:12:25;;;;;;;8.77;6.63;;;16.00;83.90;;;19.21;56.00;100724.63;5049266;28;20229;-65
2023/05/10 07:14:52;;;;;;;8.53;6.53;;;16.20;83.80;;;19.27;55.93;100726.38;5054680;28;20253;-67
2023/05/10 07:17:19;;;;;;;6.27;5.57;;;16.20;83.90;;;19.28;56.07;100729.88;5055324;28;20189;-67
2023/05/10 07:19:46;;;;;;;6.87;5.63;;;16.30;83.40;;;19.28;56.07;100729.88;5054183;28;20713;-67
2023/05/10 07:22:14;;;;;;;7.27;6.67;;;16.30;83.50;;;19.30;56.09;100727.78;5055361;28;20193;-66
2023/05/10 07:24:41;;;;;;;7.10;6.50;;;16.40;83.80;;;19.31;56.65;100740.06;5054482;28;20232;-67
2023/05/10 07:27:09;;;;;;;6.83;6.23;;;16.40;84.20;;;19.31;56.82;100740.06;5055455;28;20293;-67
2023/05/10 07:29:37;;;;;;;7.13;6.43;;;16.40;84.20;;;19.31;56.58;100740.06;5055590;28;20772;-67
2023/05/10 07:32:04;;;;;;;13.60;12.20;;;16.40;83.90;;;19.38;56.47;100740.78;5047479;28;20554;-66
2023/05/10 07:34:34;;;;;;;7.47;6.73;;;16.50;84.40;;;19.52;56.79;100737.66;5035156;28;20237;-66
2023/05/10 07:37:01;;;;;;;7.90;7.20;;;16.50;85.20;;;19.65;57.00;100747.28;5034900;28;20478;-65
2023/05/10 07:39:29;;;;;;;17.43;14.73;;;16.60;85.40;;;19.82;56.79;100742.88;5035455;28;20615;-67
2023/05/10 07:41:57;;;;;;;9.27;8.47;;;16.70;85.80;;;20.00;56.70;100739.22;5044693;28;20235;-68
2023/05/10 07:44:24;;;;;;;17.37;15.77;;;16.80;85.80;;;20.13;56.25;100739.75;5053035;28;20213;-67
2023/05/10 07:46:51;;;;;;;7.73;6.93;;;16.90;85.70;;;20.26;55.92;100744.06;5045925;28;20198;-67
2023/05/10 07:49:18;;;;;;;7.30;6.60;;;17.00;85.20;;;20.34;55.49;100745.53;5034871;28;20670;-67
2023/05/10 07:51:45;;;;;;;8.77;7.33;;;17.10;84.90;;;20.38;55.58;100746.69;5034219;28;20191;-67
2023/05/10 07:54:13;;;;;;;7.20;6.60;;;17.20;84.80;;;20.41;55.30;100743.53;5034233;28;20221;-65
2023/05/10 07:56:46;;;;;;;6.17;5.57;;;17.30;84.50;;;20.40;55.92;100745.38;5034682;28;20218;-66
2023/05/10 07:59:16;;;;;;;6.60;5.33;;;17.30;84.50;;;20.47;55.54;100750.59;5051251;28;20190;-66
2023/05/10 08:01:44;;;;;;;8.17;5.63;;;17.40;84.70;;;20.56;55.97;100757.22;5054391;28;20205;-66
2023/05/10 08:04:11;;;;;;;5.87;5.27;;;17.40;84.60;;;20.65;55.81;100758.44;5054301;28;20206;-67
2023/05/10 08:06:39;;;;;;;5.17;4.63;;;17.50;85.20;;;20.82;55.44;100757.41;5054286;28;20532;-66
2023/05/10 08:09:06;;;;;;;3.97;3.60;;;17.60;85.30;;;20.97;55.10;100762.22;5054861;28;20288;-67
2023/05/10 08:11:33;;;;;;;3.60;3.30;;;17.60;84.90;;;21.10;54.91;100767.28;5054352;28;20200;-67
2023/05/10 08:14:05;;;;;;;3.13;2.93;;;17.70;84.60;;;21.16;54.32;100760.94;5042442;28;20900;-66
2023/05/10 08:16:32;;;;;;;2.87;2.67;;;17.90;84.10;;;21.17;54.21;100767.13;5034945;28;20218;-67
2023/05/10 08:18:59;;;;;;;3.70;3.30;;;17.90;83.40;;;21.14;53.92;100768.41;5034359;28;20603;-66
2023/05/10 08:21:26;;;;;;;3.63;3.33;;;18.00;82.80;;;21.13;54.17;100777.53;5034194;28;20205;-67
2023/05/10 08:23:53;;;;;;;3.67;3.37;;;18.00;82.70;;;21.18;54.05;100774.91;5034299;28;20194;-67
2023/05/10 08:26:21;;;;;;;4.40;3.60;;;18.00;82.90;;;21.29;54.08;100775.91;5035483;28;20198;-66
2023/05/10 08:28:48;;;;;;;3.43;3.13;;;18.00;83.00;;;21.39;53.90;100782.22;5042588;28;20670;-66
2023/05/10 08:31:17;;;;;;;3.70;3.10;;;18.10;82.90;;;21.49;53.62;100777.00;5034217;28;20241;-67
2023/05/10 08:33:44;;;;;;;3.60;3.30;;;18.20;82.90;;;21.51;53.30;100780.25;5033659;28;20183;-67
2023/05/10 08:36:21;;;;;;;3.33;3.03;;;18.20;82.40;;;21.58;53.04;100777.41;5037028;28;20221;-69
2023/05/10 08:38:50;;;;;;;3.63;3.33;;;18.30;82.40;;;21.70;53.41;100783.50;5023693;28;20659;-68
2023/05/10 08:41:20;;;;;;;4.40;3.43;;;18.30;82.20;;;21.79;52.94;100775.84;5043725;28;20197;-66
2023/05/10 08:43:49;;;;;;;31.70;28.37;;;18.50;82.10;;;21.86;52.36;100776.50;5050898;28;20256;-70
2023/05/10 08:46:19;;;;;;;7.93;7.13;;;18.50;81.70;;;21.87;52.74;100783.50;5052453;28;20198;-66
2023/05/10 08:48:49;;;;;;;4.20;3.90;;;18.60;81.60;;;21.83;52.75;100782.31;5053590;28;20300;-65
2023/05/10 08:51:19;;;;;;;4.13;3.83;;;18.70;81.20;;;21.70;52.33;100788.03;5052948;28;20205;-67
2023/05/10 08:53:47;;;;;;;4.07;3.77;;;18.60;80.20;;;21.64;52.61;100797.88;5052562;28;20190;-68
2023/05/10 08:56:16;;;;;;;3.97;3.67;;;18.60;80.20;;;21.66;52.74;100794.94;5052955;28;20218;-67
2023/05/10 08:58:43;;;;;;;3.60;3.40;;;18.60;80.30;;;21.76;52.23;100801.25;5053405;28;20271;-67
2023/05/10 09:01:12;;;;;;;3.50;3.20;;;18.60;80.30;;;21.99;52.21;100801.06;5048163;28;20190;-65
2023/05/10 09:03:42;;;;;;;3.43;2.90;;;18.70;80.20;;;22.22;51.23;100797.34;5052973;28;20204;-66
2023/05/10 09:06:13;;;;;;;2.67;2.47;;;18.80;80.20;;;22.50;50.33;100799.84;5047983;28;20270;-66
2023/05/10 09:08:41;;;;;;;2.53;2.33;;;18.90;79.20;;;22.87;49.57;100789.22;5048547;28;20216;-65
2023/05/10 09:11:10;;;;;;;2.13;1.93;;;19.10;78.80;;;23.30;49.20;100812.44;5052723;28;20201;-66
2023/05/10 09:13:36;;;;;;;1.97;1.87;;;19.30;77.80;;;23.52;48.01;100807.81;5048563;28;20191;-66
2023/05/10 09:16:05;;;;;;;2.30;2.10;;;19.60;76.80;;;23.66;47.27;100814.38;5049672;28;20218;-66
2023/05/10 09:18:49;;;;;;;2.27;1.90;;;19.80;75.80;;;23.66;47.29;100819.75;5047555;28;20190;-67
2023/05/10 09:21:16;;;;;;;1.93;1.83;;;20.00;74.90;;;23.92;46.40;100818.03;5043492;28;20605;-67
2023/05/10 09:23:43;;;;;;;2.53;1.90;;;20.10;74.50;;;24.29;46.30;100818.00;5041304;28;20221;-67
2023/05/10 09:26:13;;;;;;;2.30;2.10;;;20.30;74.30;;;24.53;44.85;100827.22;5051391;28;20202;-67
2023/05/10 09:28:52;;;;;;;2.23;2.10;;;20.50;72.80;;;24.53;44.18;100819.16;5046933;28;20194;-66
2023/05/10 09:31:19;;;;;;;2.93;2.30;;;20.70;71.50;;;24.38;44.46;100827.16;5040811;28;20181;-69
2023/05/10 09:33:49;;;;;;;2.40;2.30;;;20.80;70.20;;;24.11;44.21;100828.13;5043434;28;20724;-69
2023/05/10 09:36:17;;;;;;;3.67;2.10;;;20.70;69.20;;;23.78;44.89;100828.44;5051215;28;20240;-67
2023/05/10 09:38:48;;;;;;;3.00;2.50;;;20.60;68.90;;;23.49;45.08;100832.53;5041823;28;20324;-67
2023/05/10 09:41:18;;;;;;;2.57;2.37;;;20.50;69.20;;;23.33;45.36;100836.13;5049493;28;20587;-67
2023/05/10 09:43:44;;;;;;;2.50;2.30;;;20.40;69.70;;;23.25;45.85;100832.03;5033064;28;20205;-67
2023/05/10 09:46:13;;;;;;;3.10;2.90;;;20.20;70.40;;;23.10;46.54;100834.59;5048054;28;20208;-68
2023/05/10 09:48:44;;;;;;;3.03;2.77;;;20.10;71.20;;;22.79;46.94;100829.97;5052905;28;20189;-67
2023/05/10 09:51:19;;;;;;;3.00;2.80;;;20.00;70.90;;;22.50;48.04;100831.22;5047191;28;20216;-68
2023/05/10 09:53:46;;;;;;;3.47;3.20;;;19.90;71.90;;;22.57;47.48;100839.88;5039814;28;20193;-68
2023/05/10 09:56:14;;;;;;;3.10;2.90;;;19.80;72.10;;;22.72;47.76;100840.91;5038917;28;20239;-68
2023/05/10 09:58:41;;;;;;;4.03;3.63;;;19.70;72.80;;;22.85;47.44;100840.50;5049325;28;20186;-66
2023/05/10 10:01:12;;;;;;;3.70;3.40;;;19.70;72.70;;;23.10;47.42;100841.84;5052165;28;20190;-68
2023/05/10 10:03:43;;;;;;;5.80;3.53;;;19.80;73.20;;;23.50;46.57;100843.03;5051687;28;20196;-68
2023/05/10 10:06:18;;;;;;;4.00;3.70;;;19.90;73.40;;;23.84;46.02;100838.16;5050393;28;20288;-68
2023/05/10 10:08:56;;;;;;;6.23;5.73;;;20.00;73.30;;;23.96;45.52;100841.44;5035545;28;20340;-68
2023/05/10 10:11:24;;;;;;;4.63;4.20;;;20.20;72.20;;;23.95;44.88;100845.22;5052193;28;20198;-67
2023/05/10 10:13:51;;;;;;;5.07;4.60;;;20.30;71.40;;;23.86;45.33;100843.28;5053836;28;20202;-67
2023/05/10 10:16:19;;;;;;;6.17;5.57;;;20.40;70.70;;;23.69;45.17;100846.13;5055734;28;20214;-68
2023/05/10 10:18:47;;;;;;;3.97;3.57;;;20.40;70.50;;;23.46;45.70;100859.94;5056095;28;20194;-68
2023/05/10 10:21:15;;;;;;;3.20;3.00;;;20.40;71.10;;;23.15;46.61;100864.19;5051235;28;20217;-68